sensor_id;sensor_type;location;lat;lon;timestamp;temperature;humidity
38784;DHT22;24531;45.502;12.238;2022-08-07T00:00:10;29.00;71.30
38784;DHT22;24531;45.502;12.238;2022-08-07T00:02:36;29.00;71.40
38784;DHT22;24531;45.502;12.238;2022-08-07T00:05:02;29.00;71.70
38784;DHT22;24531;45.502;12.238;2022-08-07T00:07:28;28.90;71.40
38784;DHT22;24531;45.502;12.238;2022-08-07T00:09:54;28.90;71.80
38784;DHT22;24531;45.502;12.238;2022-08-07T00:12:19;28.90;70.80
38784;DHT22;24531;45.502;12.238;2022-08-07T00:14:45;28.90;70.40
38784;DHT22;24531;45.502;12.238;2022-08-07T00:17:10;28.90;70.40
38784;DHT22;24531;45.502;12.238;2022-08-07T00:19:37;28.90;70.80
38784;DHT22;24531;45.502;12.238;2022-08-07T00:22:03;29.00;71.00
38784;DHT22;24531;45.502;12.238;2022-08-07T00:24:29;28.90;70.80
38784;DHT22;24531;45.502;12.238;2022-08-07T00:26:54;28.90;70.90
38784;DHT22;24531;45.502;12.238;2022-08-07T00:29:20;28.90;71.00
38784;DHT22;24531;45.502;12.238;2022-08-07T00:31:51;28.90;71.00
38784;DHT22;24531;45.502;12.238;2022-08-07T00:34:17;28.90;70.90
38784;DHT22;24531;45.502;12.238;2022-08-07T00:36:43;28.80;70.60
38784;DHT22;24531;45.502;12.238;2022-08-07T00:39:10;28.80;70.80
38784;DHT22;24531;45.502;12.238;2022-08-07T00:41:35;28.80;70.80
38784;DHT22;24531;45.502;12.238;2022-08-07T00:44:01;28.80;70.90
38784;DHT22;24531;45.502;12.238;2022-08-07T00:46:27;28.90;71.00
38784;DHT22;24531;45.502;12.238;2022-08-07T00:48:52;28.90;70.80
38784;DHT22;24531;45.502;12.238;2022-08-07T00:51:18;28.90;71.10
38784;DHT22;24531;45.502;12.238;2022-08-07T00:53:44;28.90;71.30
38784;DHT22;24531;45.502;12.238;2022-08-07T00:56:10;28.90;71.10
38784;DHT22;24531;45.502;12.238;2022-08-07T00:58:40;28.80;71.20
38784;DHT22;24531;45.502;12.238;2022-08-07T01:01:07;28.90;71.50
38784;DHT22;24531;45.502;12.238;2022-08-07T01:03:32;28.80;71.60
38784;DHT22;24531;45.502;12.238;2022-08-07T01:05:58;28.70;71.80
38784;DHT22;24531;45.502;12.238;2022-08-07T01:08:25;28.70;72.80
38784;DHT22;24531;45.502;12.238;2022-08-07T01:10:54;28.60;73.50
38784;DHT22;24531;45.502;12.238;2022-08-07T01:13:19;28.50;73.80
38784;DHT22;24531;45.502;12.238;2022-08-07T01:15:47;28.40;74.40
38784;DHT22;24531;45.502;12.238;2022-08-07T01:18:14;28.30;74.80
38784;DHT22;24531;45.502;12.238;2022-08-07T01:20:53;28.30;75.30
38784;DHT22;24531;45.502;12.238;2022-08-07T01:23:21;28.20;75.70
38784;DHT22;24531;45.502;12.238;2022-08-07T01:25:48;28.10;75.80
38784;DHT22;24531;45.502;12.238;2022-08-07T01:28:13;28.10;75.90
38784;DHT22;24531;45.502;12.238;2022-08-07T01:30:40;28.20;75.80
38784;DHT22;24531;45.502;12.238;2022-08-07T01:33:06;28.20;75.90
38784;DHT22;24531;45.502;12.238;2022-08-07T01:35:31;28.20;75.90
38784;DHT22;24531;45.502;12.238;2022-08-07T01:37:57;28.20;75.90
38784;DHT22;24531;45.502;12.238;2022-08-07T01:40:23;28.20;76.20
38784;DHT22;24531;45.502;12.238;2022-08-07T01:42:50;28.20;76.30
38784;DHT22;24531;45.502;12.238;2022-08-07T01:45:16;28.00;76.80
38784;DHT22;24531;45.502;12.238;2022-08-07T01:47:45;27.90;77.30
38784;DHT22;24531;45.502;12.238;2022-08-07T01:50:11;27.80;77.80
38784;DHT22;24531;45.502;12.238;2022-08-07T01:52:37;27.80;77.50
38784;DHT22;24531;45.502;12.238;2022-08-07T01:55:04;27.80;77.40
38784;DHT22;24531;45.502;12.238;2022-08-07T01:57:34;27.80;77.30
38784;DHT22;24531;45.502;12.238;2022-08-07T02:00:11;27.90;77.80
38784;DHT22;24531;45.502;12.238;2022-08-07T02:05:12;27.90;77.00
38784;DHT22;24531;45.502;12.238;2022-08-07T02:07:45;27.90;76.70
38784;DHT22;24531;45.502;12.238;2022-08-07T02:10:12;27.90;76.50
38784;DHT22;24531;45.502;12.238;2022-08-07T02:12:41;27.90;76.50
38784;DHT22;24531;45.502;12.238;2022-08-07T02:15:08;27.90;76.70
38784;DHT22;24531;45.502;12.238;2022-08-07T02:17:37;27.90;76.40
38784;DHT22;24531;45.502;12.238;2022-08-07T02:20:04;27.90;76.40
38784;DHT22;24531;45.502;12.238;2022-08-07T02:22:31;28.00;76.50
38784;DHT22;24531;45.502;12.238;2022-08-07T02:24:58;28.00;76.50
38784;DHT22;24531;45.502;12.238;2022-08-07T02:27:25;28.00;76.50
38784;DHT22;24531;45.502;12.238;2022-08-07T02:29:54;28.00;76.50
38784;DHT22;24531;45.502;12.238;2022-08-07T02:32:21;28.10;76.60
38784;DHT22;24531;45.502;12.238;2022-08-07T02:34:48;28.10;76.60
38784;DHT22;24531;45.502;12.238;2022-08-07T02:37:15;28.10;76.60
38784;DHT22;24531;45.502;12.238;2022-08-07T02:39:44;28.10;77.00
38784;DHT22;24531;45.502;12.238;2022-08-07T02:42:11;28.10;76.70
38784;DHT22;24531;45.502;12.238;2022-08-07T02:44:40;28.10;76.70
38784;DHT22;24531;45.502;12.238;2022-08-07T02:47:07;28.00;76.70
38784;DHT22;24531;45.502;12.238;2022-08-07T02:49:33;28.00;76.70
38784;DHT22;24531;45.502;12.238;2022-08-07T02:52:01;28.00;76.50
38784;DHT22;24531;45.502;12.238;2022-08-07T02:54:29;28.00;77.10
38784;DHT22;24531;45.502;12.238;2022-08-07T02:57:00;27.90;75.80
38784;DHT22;24531;45.502;12.238;2022-08-07T02:59:28;27.90;75.90
38784;DHT22;24531;45.502;12.238;2022-08-07T03:01:55;27.90;76.10
38784;DHT22;24531;45.502;12.238;2022-08-07T03:04:22;27.90;75.70
38784;DHT22;24531;45.502;12.238;2022-08-07T03:06:49;27.90;76.30
38784;DHT22;24531;45.502;12.238;2022-08-07T03:09:17;27.90;75.20
38784;DHT22;24531;45.502;12.238;2022-08-07T03:11:44;27.90;75.00
38784;DHT22;24531;45.502;12.238;2022-08-07T03:14:11;27.90;75.00
38784;DHT22;24531;45.502;12.238;2022-08-07T03:16:37;27.90;75.40
38784;DHT22;24531;45.502;12.238;2022-08-07T03:19:04;27.90;75.20
38784;DHT22;24531;45.502;12.238;2022-08-07T03:21:29;27.90;75.60
38784;DHT22;24531;45.502;12.238;2022-08-07T03:23:57;27.90;75.20
38784;DHT22;24531;45.502;12.238;2022-08-07T03:26:30;27.80;76.00
38784;DHT22;24531;45.502;12.238;2022-08-07T03:28:57;27.80;76.70
38784;DHT22;24531;45.502;12.238;2022-08-07T03:31:25;27.80;76.90
38784;DHT22;24531;45.502;12.238;2022-08-07T03:33:56;27.70;76.80
38784;DHT22;24531;45.502;12.238;2022-08-07T03:36:24;27.70;77.50
38784;DHT22;24531;45.502;12.238;2022-08-07T03:38:53;27.70;77.50
38784;DHT22;24531;45.502;12.238;2022-08-07T03:41:19;27.70;77.70
38784;DHT22;24531;45.502;12.238;2022-08-07T03:43:45;27.60;77.70
38784;DHT22;24531;45.502;12.238;2022-08-07T03:46:12;27.60;77.80
38784;DHT22;24531;45.502;12.238;2022-08-07T03:48:39;27.60;78.10
38784;DHT22;24531;45.502;12.238;2022-08-07T03:51:05;27.60;78.20
38784;DHT22;24531;45.502;12.238;2022-08-07T03:53:32;27.50;78.30
38784;DHT22;24531;45.502;12.238;2022-08-07T03:55:58;27.60;78.30
38784;DHT22;24531;45.502;12.238;2022-08-07T03:58:26;27.50;78.40
38784;DHT22;24531;45.502;12.238;2022-08-07T04:00:53;27.50;78.60
38784;DHT22;24531;45.502;12.238;2022-08-07T04:03:20;27.40;78.50
38784;DHT22;24531;45.502;12.238;2022-08-07T04:05:46;27.40;78.60
38784;DHT22;24531;45.502;12.238;2022-08-07T04:08:13;27.20;78.80
38784;DHT22;24531;45.502;12.238;2022-08-07T04:10:42;27.20;79.30
38784;DHT22;24531;45.502;12.238;2022-08-07T04:13:12;27.20;79.70
38784;DHT22;24531;45.502;12.238;2022-08-07T04:15:39;27.20;80.00
38784;DHT22;24531;45.502;12.238;2022-08-07T04:18:05;27.20;80.20
38784;DHT22;24531;45.502;12.238;2022-08-07T04:20:31;27.20;80.30
38784;DHT22;24531;45.502;12.238;2022-08-07T04:22:58;27.20;80.30
38784;DHT22;24531;45.502;12.238;2022-08-07T04:25:25;27.20;80.30
38784;DHT22;24531;45.502;12.238;2022-08-07T04:27:51;27.20;80.60
38784;DHT22;24531;45.502;12.238;2022-08-07T04:30:17;27.20;80.70
38784;DHT22;24531;45.502;12.238;2022-08-07T04:32:46;27.20;80.60
38784;DHT22;24531;45.502;12.238;2022-08-07T04:35:12;27.20;80.60
38784;DHT22;24531;45.502;12.238;2022-08-07T04:37:38;27.10;80.70
38784;DHT22;24531;45.502;12.238;2022-08-07T04:40:04;27.10;81.10
38784;DHT22;24531;45.502;12.238;2022-08-07T04:42:30;27.20;81.40
38784;DHT22;24531;45.502;12.238;2022-08-07T04:45:00;27.20;81.60
38784;DHT22;24531;45.502;12.238;2022-08-07T04:50:36;27.20;81.10
38784;DHT22;24531;45.502;12.238;2022-08-07T04:55:48;27.10;81.60
38784;DHT22;24531;45.502;12.238;2022-08-07T04:58:30;27.10;81.80
38784;DHT22;24531;45.502;12.238;2022-08-07T05:01:05;27.10;81.80
38784;DHT22;24531;45.502;12.238;2022-08-07T05:03:44;27.10;81.80
38784;DHT22;24531;45.502;12.238;2022-08-07T05:06:16;27.00;81.90
38784;DHT22;24531;45.502;12.238;2022-08-07T05:12:01;27.00;81.90
38784;DHT22;24531;45.502;12.238;2022-08-07T05:14:37;27.00;82.40
38784;DHT22;24531;45.502;12.238;2022-08-07T05:17:07;27.10;82.50
38784;DHT22;24531;45.502;12.238;2022-08-07T05:19:37;27.10;82.30
38784;DHT22;24531;45.502;12.238;2022-08-07T05:22:07;27.10;82.20
38784;DHT22;24531;45.502;12.238;2022-08-07T05:24:33;27.00;82.40
38784;DHT22;24531;45.502;12.238;2022-08-07T05:27:01;27.00;82.50
38784;DHT22;24531;45.502;12.238;2022-08-07T05:29:28;27.00;82.80
38784;DHT22;24531;45.502;12.238;2022-08-07T05:31:56;27.10;82.90
38784;DHT22;24531;45.502;12.238;2022-08-07T05:34:25;27.10;82.90
38784;DHT22;24531;45.502;12.238;2022-08-07T05:36:52;27.20;82.80
38784;DHT22;24531;45.502;12.238;2022-08-07T05:39:20;27.30;83.10
38784;DHT22;24531;45.502;12.238;2022-08-07T05:41:47;27.30;83.00
38784;DHT22;24531;45.502;12.238;2022-08-07T05:44:16;27.40;83.20
38784;DHT22;24531;45.502;12.238;2022-08-07T05:46:42;27.40;83.20
38784;DHT22;24531;45.502;12.238;2022-08-07T05:49:09;27.50;83.10
38784;DHT22;24531;45.502;12.238;2022-08-07T05:51:36;27.50;83.10
38784;DHT22;24531;45.502;12.238;2022-08-07T05:54:01;27.60;83.00
38784;DHT22;24531;45.502;12.238;2022-08-07T05:56:28;27.60;82.80
38784;DHT22;24531;45.502;12.238;2022-08-07T05:58:56;27.60;82.50
38784;DHT22;24531;45.502;12.238;2022-08-07T06:01:25;27.70;82.10
38784;DHT22;24531;45.502;12.238;2022-08-07T06:03:53;27.70;82.10
38784;DHT22;24531;45.502;12.238;2022-08-07T06:06:20;27.80;82.30
38784;DHT22;24531;45.502;12.238;2022-08-07T06:08:48;27.90;82.30
38784;DHT22;24531;45.502;12.238;2022-08-07T06:11:14;28.00;81.90
38784;DHT22;24531;45.502;12.238;2022-08-07T06:13:40;28.10;81.70
38784;DHT22;24531;45.502;12.238;2022-08-07T06:16:07;28.20;81.90
38784;DHT22;24531;45.502;12.238;2022-08-07T06:18:33;28.30;82.00
38784;DHT22;24531;45.502;12.238;2022-08-07T06:21:03;28.30;81.70
38784;DHT22;24531;45.502;12.238;2022-08-07T06:23:30;28.50;81.20
38784;DHT22;24531;45.502;12.238;2022-08-07T06:25:57;28.50;81.00
38784;DHT22;24531;45.502;12.238;2022-08-07T06:28:23;28.70;81.00
38784;DHT22;24531;45.502;12.238;2022-08-07T06:30:49;28.80;81.20
38784;DHT22;24531;45.502;12.238;2022-08-07T06:33:15;28.90;80.90
38784;DHT22;24531;45.502;12.238;2022-08-07T06:35:42;29.00;80.20
38784;DHT22;24531;45.502;12.238;2022-08-07T06:38:07;29.10;80.10
38784;DHT22;24531;45.502;12.238;2022-08-07T06:40:38;29.20;79.30
38784;DHT22;24531;45.502;12.238;2022-08-07T06:43:06;29.20;79.20
38784;DHT22;24531;45.502;12.238;2022-08-07T06:45:33;29.30;79.30
38784;DHT22;24531;45.502;12.238;2022-08-07T06:47:59;29.40;79.40
38784;DHT22;24531;45.502;12.238;2022-08-07T06:50:26;29.70;79.00
38784;DHT22;24531;45.502;12.238;2022-08-07T06:52:54;30.00;78.00
38784;DHT22;24531;45.502;12.238;2022-08-07T06:55:29;30.10;77.80
38784;DHT22;24531;45.502;12.238;2022-08-07T06:58:00;30.10;78.10
38784;DHT22;24531;45.502;12.238;2022-08-07T07:00:31;30.00;77.70
38784;DHT22;24531;45.502;12.238;2022-08-07T07:02:57;30.00;78.10
38784;DHT22;24531;45.502;12.238;2022-08-07T07:05:23;30.00;78.00
38784;DHT22;24531;45.502;12.238;2022-08-07T07:07:49;29.90;78.10
38784;DHT22;24531;45.502;12.238;2022-08-07T07:10:18;30.00;78.20
38784;DHT22;24531;45.502;12.238;2022-08-07T07:12:52;30.10;77.40
38784;DHT22;24531;45.502;12.238;2022-08-07T07:15:24;30.20;77.20
38784;DHT22;24531;45.502;12.238;2022-08-07T07:18:13;30.10;77.10
38784;DHT22;24531;45.502;12.238;2022-08-07T07:21:02;30.30;77.40
38784;DHT22;24531;45.502;12.238;2022-08-07T07:23:29;30.60;77.30
38784;DHT22;24531;45.502;12.238;2022-08-07T07:25:59;30.70;76.40
38784;DHT22;24531;45.502;12.238;2022-08-07T07:28:36;30.80;77.30
38784;DHT22;24531;45.502;12.238;2022-08-07T07:31:15;30.90;76.00
38784;DHT22;24531;45.502;12.238;2022-08-07T07:33:43;31.00;75.00
38784;DHT22;24531;45.502;12.238;2022-08-07T07:36:11;31.10;74.30
38784;DHT22;24531;45.502;12.238;2022-08-07T07:38:38;31.20;74.40
38784;DHT22;24531;45.502;12.238;2022-08-07T07:41:07;31.20;73.60
38784;DHT22;24531;45.502;12.238;2022-08-07T07:43:37;31.30;73.20
38784;DHT22;24531;45.502;12.238;2022-08-07T07:46:04;31.50;72.40
38784;DHT22;24531;45.502;12.238;2022-08-07T07:48:30;31.50;72.10
38784;DHT22;24531;45.502;12.238;2022-08-07T07:50:57;31.50;70.90
38784;DHT22;24531;45.502;12.238;2022-08-07T07:53:25;31.50;70.80
38784;DHT22;24531;45.502;12.238;2022-08-07T07:55:57;31.50;70.70
38784;DHT22;24531;45.502;12.238;2022-08-07T07:58:25;31.40;71.30
38784;DHT22;24531;45.502;12.238;2022-08-07T08:00:51;31.30;70.40
38784;DHT22;24531;45.502;12.238;2022-08-07T08:03:20;31.20;70.40
38784;DHT22;24531;45.502;12.238;2022-08-07T08:05:48;31.20;70.70
38784;DHT22;24531;45.502;12.238;2022-08-07T08:08:15;31.30;72.60
38784;DHT22;24531;45.502;12.238;2022-08-07T08:10:42;31.40;71.30
38784;DHT22;24531;45.502;12.238;2022-08-07T08:13:08;31.40;70.90
38784;DHT22;24531;45.502;12.238;2022-08-07T08:15:37;31.40;70.70
38784;DHT22;24531;45.502;12.238;2022-08-07T08:18:07;31.30;71.20
38784;DHT22;24531;45.502;12.238;2022-08-07T08:20:34;31.30;71.20
38784;DHT22;24531;45.502;12.238;2022-08-07T08:23:00;31.20;71.00
38784;DHT22;24531;45.502;12.238;2022-08-07T08:25:48;31.10;71.80
38784;DHT22;24531;45.502;12.238;2022-08-07T08:28:36;31.00;71.90
38784;DHT22;24531;45.502;12.238;2022-08-07T08:31:05;30.80;71.70
38784;DHT22;24531;45.502;12.238;2022-08-07T08:33:32;30.70;72.40
38784;DHT22;24531;45.502;12.238;2022-08-07T08:35:59;30.60;72.60
38784;DHT22;24531;45.502;12.238;2022-08-07T08:38:31;30.50;73.20
38784;DHT22;24531;45.502;12.238;2022-08-07T08:41:12;30.40;74.10
38784;DHT22;24531;45.502;12.238;2022-08-07T08:44:04;30.10;75.90
38784;DHT22;24531;45.502;12.238;2022-08-07T08:46:47;29.80;78.40
38784;DHT22;24531;45.502;12.238;2022-08-07T08:49:19;29.60;79.70
38784;DHT22;24531;45.502;12.238;2022-08-07T08:51:54;29.50;80.30
38784;DHT22;24531;45.502;12.238;2022-08-07T08:57:26;29.50;81.20
38784;DHT22;24531;45.502;12.238;2022-08-07T09:00:00;29.50;81.90
38784;DHT22;24531;45.502;12.238;2022-08-07T09:05:25;29.60;83.10
38784;DHT22;24531;45.502;12.238;2022-08-07T09:13:19;30.80;81.50
38784;DHT22;24531;45.502;12.238;2022-08-07T09:21:48;32.90;78.30
38784;DHT22;24531;45.502;12.238;2022-08-07T09:27:26;33.60;75.20
38784;DHT22;24531;45.502;12.238;2022-08-07T09:30:04;33.80;74.80
38784;DHT22;24531;45.502;12.238;2022-08-07T09:32:54;33.70;74.70
38784;DHT22;24531;45.502;12.238;2022-08-07T09:38:11;34.80;72.80
38784;DHT22;24531;45.502;12.238;2022-08-07T09:40:59;34.70;71.70
38784;DHT22;24531;45.502;12.238;2022-08-07T09:54:29;34.70;68.20
38784;DHT22;24531;45.502;12.238;2022-08-07T09:59:47;33.80;70.70
38784;DHT22;24531;45.502;12.238;2022-08-07T10:11:13;32.40;71.30
38784;DHT22;24531;45.502;12.238;2022-08-07T10:19:15;31.90;72.30
38784;DHT22;24531;45.502;12.238;2022-08-07T10:36:33;32.10;73.00
38784;DHT22;24531;45.502;12.238;2022-08-07T10:39:24;32.20;71.50
38784;DHT22;24531;45.502;12.238;2022-08-07T10:42:14;32.20;69.90
38784;DHT22;24531;45.502;12.238;2022-08-07T10:47:46;32.20;69.30
38784;DHT22;24531;45.502;12.238;2022-08-07T10:50:28;32.20;70.20
38784;DHT22;24531;45.502;12.238;2022-08-07T10:53:16;32.10;70.10
38784;DHT22;24531;45.502;12.238;2022-08-07T11:07:38;31.80;69.90
38784;DHT22;24531;45.502;12.238;2022-08-07T11:10:15;31.70;69.90
38784;DHT22;24531;45.502;12.238;2022-08-07T11:12:52;31.60;69.90
38784;DHT22;24531;45.502;12.238;2022-08-07T11:15:22;31.40;69.70
38784;DHT22;24531;45.502;12.238;2022-08-07T11:18:02;31.30;70.00
38784;DHT22;24531;45.502;12.238;2022-08-07T11:26:27;31.00;73.10
38784;DHT22;24531;45.502;12.238;2022-08-07T11:29:00;30.80;74.50
38784;DHT22;24531;45.502;12.238;2022-08-07T11:31:42;30.70;74.70
38784;DHT22;24531;45.502;12.238;2022-08-07T11:34:57;30.60;75.60
38784;DHT22;24531;45.502;12.238;2022-08-07T11:37:46;30.50;76.00
38784;DHT22;24531;45.502;12.238;2022-08-07T11:51:30;30.70;77.60
38784;DHT22;24531;45.502;12.238;2022-08-07T11:54:23;31.00;77.20
38784;DHT22;24531;45.502;12.238;2022-08-07T12:02:07;31.20;75.90
38784;DHT22;24531;45.502;12.238;2022-08-07T12:07:23;31.20;73.50
38784;DHT22;24531;45.502;12.238;2022-08-07T12:09:57;31.20;75.60
38784;DHT22;24531;45.502;12.238;2022-08-07T12:12:27;31.20;76.00
38784;DHT22;24531;45.502;12.238;2022-08-07T12:15:05;31.20;76.00
38784;DHT22;24531;45.502;12.238;2022-08-07T12:17:44;31.20;76.80
38784;DHT22;24531;45.502;12.238;2022-08-07T12:21:04;31.10;76.20
38784;DHT22;24531;45.502;12.238;2022-08-07T12:23:18;31.00;76.20
38784;DHT22;24531;45.502;12.238;2022-08-07T12:25:45;30.80;75.90
38784;DHT22;24531;45.502;12.238;2022-08-07T12:28:26;30.70;76.70
38784;DHT22;24531;45.502;12.238;2022-08-07T12:30:56;30.60;77.40
38784;DHT22;24531;45.502;12.238;2022-08-07T12:33:27;30.50;77.60
38784;DHT22;24531;45.502;12.238;2022-08-07T12:35:54;30.40;77.30
38784;DHT22;24531;45.502;12.238;2022-08-07T12:38:22;30.40;77.70
38784;DHT22;24531;45.502;12.238;2022-08-07T12:40:49;30.30;78.00
38784;DHT22;24531;45.502;12.238;2022-08-07T12:43:18;30.30;78.10
38784;DHT22;24531;45.502;12.238;2022-08-07T12:49:16;30.30;78.00
38784;DHT22;24531;45.502;12.238;2022-08-07T12:51:50;30.20;77.80
38784;DHT22;24531;45.502;12.238;2022-08-07T12:54:28;30.20;78.00
38784;DHT22;24531;45.502;12.238;2022-08-07T12:56:58;30.20;78.30
38784;DHT22;24531;45.502;12.238;2022-08-07T12:59:27;30.20;78.40
38784;DHT22;24531;45.502;12.238;2022-08-07T13:10:31;30.40;78.90
38784;DHT22;24531;45.502;12.238;2022-08-07T13:21:25;30.60;78.10
38784;DHT22;24531;45.502;12.238;2022-08-07T13:24:09;30.60;78.10
38784;DHT22;24531;45.502;12.238;2022-08-07T13:26:41;30.70;77.60
38784;DHT22;24531;45.502;12.238;2022-08-07T13:32:14;31.20;77.80
38784;DHT22;24531;45.502;12.238;2022-08-07T13:34:56;31.70;76.90
38784;DHT22;24531;45.502;12.238;2022-08-07T13:38:27;32.00;74.70
38784;DHT22;24531;45.502;12.238;2022-08-07T13:43:29;32.40;73.00
38784;DHT22;24531;45.502;12.238;2022-08-07T13:45:59;32.40;73.00
38784;DHT22;24531;45.502;12.238;2022-08-07T13:48:28;32.50;72.70
38784;DHT22;24531;45.502;12.238;2022-08-07T13:50:54;32.60;72.00
38784;DHT22;24531;45.502;12.238;2022-08-07T13:53:22;32.60;71.50
38784;DHT22;24531;45.502;12.238;2022-08-07T13:55:51;32.70;70.70
38784;DHT22;24531;45.502;12.238;2022-08-07T13:58:17;32.60;70.00
38784;DHT22;24531;45.502;12.238;2022-08-07T14:01:11;32.60;70.20
38784;DHT22;24531;45.502;12.238;2022-08-07T14:03:39;32.70;70.40
38784;DHT22;24531;45.502;12.238;2022-08-07T14:06:07;32.80;69.90
38784;DHT22;24531;45.502;12.238;2022-08-07T14:08:38;32.80;69.90
38784;DHT22;24531;45.502;12.238;2022-08-07T14:11:05;32.80;69.90
38784;DHT22;24531;45.502;12.238;2022-08-07T14:13:32;32.80;69.50
38784;DHT22;24531;45.502;12.238;2022-08-07T14:16:03;32.80;68.80
38784;DHT22;24531;45.502;12.238;2022-08-07T14:21:31;32.90;68.00
38784;DHT22;24531;45.502;12.238;2022-08-07T14:23:58;33.00;67.80
38784;DHT22;24531;45.502;12.238;2022-08-07T14:26:29;32.80;68.00
38784;DHT22;24531;45.502;12.238;2022-08-07T14:28:59;32.60;68.40
38784;DHT22;24531;45.502;12.238;2022-08-07T14:31:26;32.40;68.10
38784;DHT22;24531;45.502;12.238;2022-08-07T14:33:52;32.20;68.10
38784;DHT22;24531;45.502;12.238;2022-08-07T14:36:20;32.30;69.50
38784;DHT22;24531;45.502;12.238;2022-08-07T14:38:47;32.50;69.20
38784;DHT22;24531;45.502;12.238;2022-08-07T14:41:21;32.50;68.90
38784;DHT22;24531;45.502;12.238;2022-08-07T14:43:51;32.60;69.50
38784;DHT22;24531;45.502;12.238;2022-08-07T14:46:18;32.50;68.90
38784;DHT22;24531;45.502;12.238;2022-08-07T14:48:46;32.50;68.70
38784;DHT22;24531;45.502;12.238;2022-08-07T14:51:18;32.50;68.90
38784;DHT22;24531;45.502;12.238;2022-08-07T14:53:46;32.40;69.10
38784;DHT22;24531;45.502;12.238;2022-08-07T14:56:16;32.30;69.30
38784;DHT22;24531;45.502;12.238;2022-08-07T14:58:48;32.30;69.10
38784;DHT22;24531;45.502;12.238;2022-08-07T15:01:15;32.30;69.40
38784;DHT22;24531;45.502;12.238;2022-08-07T15:03:43;32.30;70.00
38784;DHT22;24531;45.502;12.238;2022-08-07T15:06:11;32.30;68.90
38784;DHT22;24531;45.502;12.238;2022-08-07T15:08:41;32.20;68.70
38784;DHT22;24531;45.502;12.238;2022-08-07T15:11:18;32.30;69.30
38784;DHT22;24531;45.502;12.238;2022-08-07T15:13:59;32.40;68.80
38784;DHT22;24531;45.502;12.238;2022-08-07T15:16:45;32.60;67.90
38784;DHT22;24531;45.502;12.238;2022-08-07T15:19:17;32.80;66.80
38784;DHT22;24531;45.502;12.238;2022-08-07T15:21:51;32.90;66.20
38784;DHT22;24531;45.502;12.238;2022-08-07T15:24:28;32.90;66.70
38784;DHT22;24531;45.502;12.238;2022-08-07T15:27:01;32.90;65.70
38784;DHT22;24531;45.502;12.238;2022-08-07T15:29:34;32.80;65.60
38784;DHT22;24531;45.502;12.238;2022-08-07T15:32:02;32.80;65.80
38784;DHT22;24531;45.502;12.238;2022-08-07T15:34:53;32.80;66.30
38784;DHT22;24531;45.502;12.238;2022-08-07T15:37:22;32.90;66.90
38784;DHT22;24531;45.502;12.238;2022-08-07T15:39:53;32.90;65.60
38784;DHT22;24531;45.502;12.238;2022-08-07T15:45:24;32.80;66.10
38784;DHT22;24531;45.502;12.238;2022-08-07T15:47:58;32.50;65.40
38784;DHT22;24531;45.502;12.238;2022-08-07T15:50:34;32.70;65.70
38784;DHT22;24531;45.502;12.238;2022-08-07T15:53:10;32.60;65.10
38784;DHT22;24531;45.502;12.238;2022-08-07T15:55:43;32.50;65.10
38784;DHT22;24531;45.502;12.238;2022-08-07T15:58:14;32.40;65.60
38784;DHT22;24531;45.502;12.238;2022-08-07T16:00:41;32.30;65.80
38784;DHT22;24531;45.502;12.238;2022-08-07T16:03:19;32.30;65.80
38784;DHT22;24531;45.502;12.238;2022-08-07T16:05:48;32.40;65.20
38784;DHT22;24531;45.502;12.238;2022-08-07T16:08:20;32.40;64.60
38784;DHT22;24531;45.502;12.238;2022-08-07T16:10:53;32.40;65.90
38784;DHT22;24531;45.502;12.238;2022-08-07T16:13:37;32.50;65.30
38784;DHT22;24531;45.502;12.238;2022-08-07T16:16:28;32.50;65.10
38784;DHT22;24531;45.502;12.238;2022-08-07T16:21:50;32.50;64.30
38784;DHT22;24531;45.502;12.238;2022-08-07T16:27:12;32.50;63.70
38784;DHT22;24531;45.502;12.238;2022-08-07T16:30:05;32.50;64.70
38784;DHT22;24531;45.502;12.238;2022-08-07T16:32:41;32.50;63.30
38784;DHT22;24531;45.502;12.238;2022-08-07T16:38:09;32.40;62.80
38784;DHT22;24531;45.502;12.238;2022-08-07T16:52:22;32.20;63.90
38784;DHT22;24531;45.502;12.238;2022-08-07T16:57:58;32.20;64.50
38784;DHT22;24531;45.502;12.238;2022-08-07T17:01:21;32.20;62.90
38784;DHT22;24531;45.502;12.238;2022-08-07T17:03:26;32.10;64.70
38784;DHT22;24531;45.502;12.238;2022-08-07T17:08:55;32.00;65.00
38784;DHT22;24531;45.502;12.238;2022-08-07T17:14:36;32.00;66.50
38784;DHT22;24531;45.502;12.238;2022-08-07T17:17:17;32.00;66.10
38784;DHT22;24531;45.502;12.238;2022-08-07T17:19:46;32.00;65.80
38784;DHT22;24531;45.502;12.238;2022-08-07T17:22:24;31.90;66.20
38784;DHT22;24531;45.502;12.238;2022-08-07T17:25:18;31.90;66.60
38784;DHT22;24531;45.502;12.238;2022-08-07T17:27:59;31.90;66.50
38784;DHT22;24531;45.502;12.238;2022-08-07T17:30:48;31.90;65.20
38784;DHT22;24531;45.502;12.238;2022-08-07T17:33:23;31.90;65.50
38784;DHT22;24531;45.502;12.238;2022-08-07T17:36:12;31.80;64.80
38784;DHT22;24531;45.502;12.238;2022-08-07T17:38:55;31.70;64.80
38784;DHT22;24531;45.502;12.238;2022-08-07T17:44:10;31.70;65.10
38784;DHT22;24531;45.502;12.238;2022-08-07T17:46:48;31.70;65.10
38784;DHT22;24531;45.502;12.238;2022-08-07T17:49:29;31.70;66.30
38784;DHT22;24531;45.502;12.238;2022-08-07T17:52:23;31.70;66.80
38784;DHT22;24531;45.502;12.238;2022-08-07T17:55:00;31.70;65.70
38784;DHT22;24531;45.502;12.238;2022-08-07T18:00:09;31.60;66.60
38784;DHT22;24531;45.502;12.238;2022-08-07T18:02:56;31.50;67.30
38784;DHT22;24531;45.502;12.238;2022-08-07T18:05:29;31.50;67.10
38784;DHT22;24531;45.502;12.238;2022-08-07T18:08:17;31.40;67.30
38784;DHT22;24531;45.502;12.238;2022-08-07T18:16:04;31.30;68.20
38784;DHT22;24531;45.502;12.238;2022-08-07T18:18:38;31.20;67.80
38784;DHT22;24531;45.502;12.238;2022-08-07T18:29:35;31.00;67.60
38784;DHT22;24531;45.502;12.238;2022-08-07T18:41:09;30.70;65.20
38784;DHT22;24531;45.502;12.238;2022-08-07T18:46:38;30.60;64.70
38784;DHT22;24531;45.502;12.238;2022-08-07T18:49:23;30.50;64.20
38784;DHT22;24531;45.502;12.238;2022-08-07T18:52:24;30.50;64.20
38784;DHT22;24531;45.502;12.238;2022-08-07T18:57:41;30.40;63.90
38784;DHT22;24531;45.502;12.238;2022-08-07T19:00:14;30.30;63.70
38784;DHT22;24531;45.502;12.238;2022-08-07T19:03:21;30.30;63.60
38784;DHT22;24531;45.502;12.238;2022-08-07T19:06:01;30.20;63.50
38784;DHT22;24531;45.502;12.238;2022-08-07T19:13:46;30.00;63.30
38784;DHT22;24531;45.502;12.238;2022-08-07T19:16:33;29.90;63.00
38784;DHT22;24531;45.502;12.238;2022-08-07T19:19:07;29.90;63.30